createdAt,value
2017-09-20T00:00:15.602Z,0
2017-09-20T00:01:25.645Z,0
2017-09-20T00:02:36.008Z,0
2017-09-20T00:03:46.029Z,0
2017-09-20T00:04:56.364Z,0
2017-09-20T00:06:06.401Z,0
2017-09-20T00:07:18.063Z,0
2017-09-20T00:08:28.081Z,0
2017-09-20T00:09:38.417Z,0
2017-09-20T00:10:48.751Z,0
2017-09-20T00:11:59.086Z,0
2017-09-20T00:13:09.115Z,0
2017-09-20T00:14:19.460Z,0
2017-09-20T00:15:29.805Z,0
2017-09-20T00:16:39.842Z,0
2017-09-20T00:17:49.863Z,0
2017-09-20T00:19:00.198Z,0
2017-09-20T00:20:10.530Z,0
2017-09-20T00:21:20.878Z,0
2017-09-20T00:22:31.220Z,0
2017-09-20T00:23:41.541Z,0
2017-09-20T00:24:51.921Z,0
2017-09-20T00:26:02.262Z,0
2017-09-20T00:27:12.270Z,0
2017-09-20T00:28:22.628Z,0
2017-09-20T00:29:32.964Z,0
2017-09-20T00:30:43.309Z,0
2017-09-20T00:31:54.834Z,0
2017-09-20T00:33:07.364Z,0
2017-09-20T00:34:17.391Z,0
2017-09-20T00:35:27.739Z,0
2017-09-20T00:36:38.115Z,0
2017-09-20T00:37:48.468Z,0
2017-09-20T00:39:00.115Z,0
2017-09-20T00:40:10.452Z,0
2017-09-20T00:41:20.472Z,0
2017-09-20T00:42:30.822Z,0
2017-09-20T00:43:41.192Z,0
2017-09-20T00:44:51.530Z,0
2017-09-20T00:46:01.865Z,0
2017-09-20T00:47:11.888Z,0
2017-09-20T00:48:21.960Z,0
2017-09-20T00:49:32.294Z,0
2017-09-20T00:50:42.663Z,0
2017-09-20T00:51:53.040Z,0
2017-09-20T00:53:03.391Z,0
2017-09-20T00:54:13.724Z,0
2017-09-20T00:55:24.070Z,0
2017-09-20T00:56:34.093Z,0
2017-09-20T00:57:44.414Z,0
2017-09-20T00:58:54.825Z,0
2017-09-20T01:00:05.175Z,0
2017-09-20T01:01:15.519Z,0
2017-09-20T01:02:25.530Z,0
2017-09-20T01:03:35.883Z,0
2017-09-20T01:04:45.913Z,0
2017-09-20T01:05:55.990Z,0
2017-09-20T01:07:06.323Z,0
2017-09-20T01:08:16.357Z,0
2017-09-20T01:09:26.371Z,0
2017-09-20T01:10:36.694Z,0
2017-09-20T01:11:46.712Z,0
2017-09-20T01:12:57.060Z,0
2017-09-20T01:14:07.407Z,0
2017-09-20T01:15:17.745Z,0
2017-09-20T01:16:28.073Z,0
2017-09-20T01:17:38.405Z,0
2017-09-20T01:18:48.746Z,0
2017-09-20T01:19:58.798Z,0
2017-09-20T01:21:08.838Z,0
2017-09-20T01:22:19.228Z,0
2017-09-20T01:23:29.555Z,0
2017-09-20T01:24:39.264Z,0
2017-09-20T01:25:49.650Z,0
2017-09-20T01:26:59.989Z,0
2017-09-20T01:28:12.008Z,0
2017-09-20T01:29:22.348Z,0
2017-09-20T01:30:32.679Z,0
2017-09-20T01:31:43.005Z,0
2017-09-20T01:32:53.343Z,0
2017-09-20T01:34:03.685Z,0
2017-09-20T01:35:14.012Z,0
2017-09-20T01:36:24.032Z,0
2017-09-20T01:37:34.059Z,0
2017-09-20T01:38:44.411Z,0
2017-09-20T01:39:54.752Z,0
2017-09-20T01:41:05.102Z,0
2017-09-20T01:42:15.456Z,0
2017-09-20T01:43:25.792Z,0
2017-09-20T01:44:36.126Z,0
2017-09-20T01:45:46.486Z,0
2017-09-20T01:46:57.518Z,0
2017-09-20T01:48:07.845Z,0
2017-09-20T01:49:18.182Z,0
2017-09-20T01:50:28.514Z,0
2017-09-20T01:51:40.035Z,0
2017-09-20T01:52:50.373Z,0
2017-09-20T01:54:00.724Z,0
2017-09-20T01:55:10.790Z,0
2017-09-20T01:56:21.127Z,0
2017-09-20T01:57:31.154Z,0
2017-09-20T01:58:41.162Z,0
2017-09-20T01:59:51.498Z,0
2017-09-20T02:01:01.885Z,0
2017-09-20T02:02:11.603Z,0
2017-09-20T02:03:21.956Z,0
2017-09-20T02:04:32.295Z,0
2017-09-20T02:05:42.321Z,0
2017-09-20T02:06:52.633Z,0
2017-09-20T02:08:02.685Z,0
2017-09-20T02:09:13.057Z,0
2017-09-20T02:10:23.399Z,0
2017-09-20T02:11:33.731Z,0
2017-09-20T02:12:44.241Z,0
2017-09-20T02:13:54.286Z,0
2017-09-20T02:15:04.619Z,0
2017-09-20T02:16:14.953Z,0
2017-09-20T02:17:25.351Z,0
2017-09-20T02:18:35.689Z,0
2017-09-20T02:19:45.704Z,0
2017-09-20T02:20:56.059Z,0
2017-09-20T02:22:06.079Z,0
2017-09-20T02:23:16.433Z,0
2017-09-20T02:24:26.800Z,0
2017-09-20T02:25:37.133Z,0
2017-09-20T02:26:47.475Z,0
2017-09-20T02:27:57.823Z,0
2017-09-20T02:29:08.163Z,0
2017-09-20T02:30:18.493Z,0
2017-09-20T02:31:28.839Z,0
2017-09-20T02:32:38.861Z,0
2017-09-20T02:33:49.199Z,0
2017-09-20T02:34:59.249Z,0
2017-09-20T02:36:09.637Z,0
2017-09-20T02:37:19.979Z,0
2017-09-20T02:38:30.005Z,0
2017-09-20T02:39:40.334Z,0
2017-09-20T02:40:50.690Z,0
2017-09-20T02:42:00.755Z,0
2017-09-20T02:43:11.154Z,0
2017-09-20T02:44:21.482Z,0
2017-09-20T02:45:31.178Z,0
2017-09-20T02:46:41.510Z,0
2017-09-20T02:47:51.891Z,0
2017-09-20T02:49:02.223Z,0
2017-09-20T02:50:12.258Z,0
2017-09-20T02:51:22.605Z,0
2017-09-20T02:52:32.948Z,0
2017-09-20T02:53:42.656Z,0
2017-09-20T02:54:52.995Z,0
2017-09-20T02:56:03.036Z,0
2017-09-20T02:57:13.380Z,0
2017-09-20T02:58:23.716Z,0
2017-09-20T02:59:33.772Z,0
2017-09-20T03:00:43.804Z,0
2017-09-20T03:01:54.158Z,0
2017-09-20T03:34:05.111Z,0
2017-09-20T03:35:15.443Z,0
2017-09-20T03:36:25.773Z,0
2017-09-20T03:37:36.157Z,0
2017-09-20T03:38:46.500Z,0
2017-09-20T03:39:56.517Z,0
2017-09-20T03:41:06.859Z,0
2017-09-20T03:42:17.199Z,0
2017-09-20T03:43:27.259Z,0
2017-09-20T03:44:36.982Z,0
2017-09-20T03:45:47.316Z,0
2017-09-20T03:46:57.348Z,0
2017-09-20T03:48:07.361Z,0
2017-09-20T03:49:17.712Z,0
2017-09-20T03:50:28.053Z,0
2017-09-20T03:51:38.396Z,0
2017-09-20T03:52:48.734Z,0
2017-09-20T03:53:59.118Z,0
2017-09-20T03:55:09.142Z,0
2017-09-20T03:56:19.519Z,0
2017-09-20T03:57:29.855Z,0
2017-09-20T03:58:39.878Z,0
2017-09-20T03:59:49.900Z,0
2017-09-20T04:01:01.740Z,0
2017-09-20T04:02:12.244Z,0
2017-09-20T04:03:22.686Z,0
2017-09-20T04:04:32.719Z,0
2017-09-20T04:05:42.469Z,0
2017-09-20T04:06:52.808Z,0
2017-09-20T04:08:03.152Z,0
2017-09-20T04:09:13.532Z,0
2017-09-20T04:10:23.239Z,0
2017-09-20T04:11:33.260Z,0
2017-09-20T04:12:45.799Z,0
2017-09-20T04:13:56.135Z,0
2017-09-20T04:15:06.481Z,0
2017-09-20T04:16:16.825Z,0
2017-09-20T04:17:27.152Z,0
2017-09-20T04:18:37.498Z,0
2017-09-20T04:19:47.516Z,0
2017-09-20T04:20:57.854Z,0
2017-09-20T04:22:08.202Z,0
2017-09-20T04:23:18.600Z,0
2017-09-20T04:24:28.945Z,0
2017-09-20T04:25:38.653Z,0
2017-09-20T04:26:49.009Z,0
2017-09-20T04:27:59.359Z,0
2017-09-20T04:29:09.697Z,0
2017-09-20T04:30:20.043Z,0
2017-09-20T04:31:30.408Z,0
2017-09-20T04:32:40.438Z,0
2017-09-20T04:33:50.771Z,0
2017-09-20T04:35:01.174Z,0
2017-09-20T04:36:11.522Z,0
2017-09-20T04:37:21.855Z,0
2017-09-20T04:38:31.551Z,0
2017-09-20T04:39:41.899Z,0
2017-09-20T04:40:51.908Z,0
2017-09-20T04:42:01.936Z,0
2017-09-20T04:43:12.920Z,0
2017-09-20T04:44:22.944Z,0
2017-09-20T04:45:33.284Z,0
2017-09-20T04:46:43.629Z,0
2017-09-20T04:47:54.013Z,0
2017-09-20T04:49:04.354Z,0
2017-09-20T04:50:14.059Z,0
2017-09-20T04:51:24.397Z,0
2017-09-20T04:52:34.739Z,0
2017-09-20T04:53:44.755Z,0
2017-09-20T04:54:55.089Z,0
2017-09-20T04:56:05.424Z,0
2017-09-20T04:57:15.462Z,0
2017-09-20T04:58:25.492Z,0
2017-09-20T04:59:35.909Z,0
2017-09-20T05:00:46.251Z,0
2017-09-20T05:01:56.277Z,0
2017-09-20T05:03:06.634Z,0
2017-09-20T05:04:16.994Z,0
2017-09-20T05:05:27.005Z,0
2017-09-20T05:06:37.070Z,0
2017-09-20T05:07:47.105Z,0
2017-09-20T05:08:57.146Z,0
2017-09-20T05:10:07.502Z,0
2017-09-20T05:11:17.851Z,0
2017-09-20T05:12:28.197Z,5
2017-09-20T05:13:38.569Z,5
2017-09-20T05:14:48.278Z,5
2017-09-20T05:15:58.617Z,5
2017-09-20T05:17:09.023Z,5
2017-09-20T05:18:19.038Z,5
2017-09-20T05:19:29.371Z,5
2017-09-20T05:20:39.709Z,5
2017-09-20T05:21:50.042Z,5
2017-09-20T05:23:00.423Z,5
2017-09-20T05:24:10.447Z,5
2017-09-20T05:25:20.789Z,5
2017-09-20T05:26:31.196Z,5
2017-09-20T05:27:41.226Z,5
2017-09-20T05:28:51.299Z,10
2017-09-20T05:30:01.648Z,10
2017-09-20T05:31:12.001Z,10
2017-09-20T05:32:22.334Z,10
2017-09-20T05:33:32.696Z,10
2017-09-20T05:34:43.071Z,10
2017-09-20T05:35:53.079Z,10
2017-09-20T05:37:02.791Z,10
2017-09-20T05:38:13.126Z,10
2017-09-20T05:39:23.450Z,10
2017-09-20T05:40:33.777Z,15
2017-09-20T05:41:44.123Z,15
2017-09-20T05:42:54.140Z,15
2017-09-20T05:44:04.170Z,15
2017-09-20T05:45:13.879Z,15
2017-09-20T05:46:24.207Z,15
2017-09-20T05:47:34.226Z,15
2017-09-20T05:48:44.574Z,15
2017-09-20T05:49:54.926Z,15
2017-09-20T05:51:05.667Z,15
2017-09-20T05:52:16.054Z,15
2017-09-20T05:53:26.395Z,15
2017-09-20T05:54:36.418Z,15
2017-09-20T05:55:46.460Z,15
2017-09-20T05:56:56.789Z,15
2017-09-20T05:58:06.811Z,10
2017-09-20T05:59:16.820Z,10
2017-09-20T06:00:26.835Z,15
2017-09-20T06:01:36.862Z,15
2017-09-20T06:02:47.225Z,15
2017-09-20T06:03:57.246Z,15
2017-09-20T06:05:07.253Z,15
2017-09-20T06:06:17.584Z,15
2017-09-20T06:07:27.930Z,15
2017-09-20T06:08:37.972Z,15
2017-09-20T06:09:47.684Z,15
2017-09-20T06:10:58.030Z,15
2017-09-20T06:12:08.476Z,15
2017-09-20T06:13:18.821Z,15
2017-09-20T06:14:28.829Z,15
2017-09-20T06:15:39.183Z,15
2017-09-20T06:16:49.529Z,15
2017-09-20T06:17:59.232Z,15
2017-09-20T06:19:09.282Z,15
2017-09-20T06:20:19.320Z,20
2017-09-20T06:21:29.676Z,20
2017-09-20T06:22:40.013Z,20
2017-09-20T06:23:50.352Z,20
2017-09-20T06:25:01.593Z,25
2017-09-20T06:26:11.614Z,25
2017-09-20T06:27:21.956Z,25
2017-09-20T06:28:32.310Z,30
2017-09-20T06:29:42.644Z,30
2017-09-20T06:30:53.013Z,35
2017-09-20T06:32:03.352Z,35
2017-09-20T06:33:13.118Z,35
2017-09-20T06:34:23.473Z,35
2017-09-20T06:35:33.813Z,35
2017-09-20T06:36:43.848Z,35
2017-09-20T06:37:54.219Z,35
2017-09-20T06:39:04.568Z,35
2017-09-20T06:40:14.925Z,35
2017-09-20T06:41:25.312Z,35
2017-09-20T06:42:35.300Z,40
2017-09-20T06:43:45.322Z,40
2017-09-20T06:44:55.666Z,40
2017-09-20T06:46:06.004Z,40
2017-09-20T06:47:16.376Z,40
2017-09-20T06:48:26.397Z,40
2017-09-20T06:49:36.764Z,40
2017-09-20T06:50:47.101Z,40
2017-09-20T06:51:57.439Z,40
2017-09-20T06:53:08.926Z,40
2017-09-20T06:54:20.052Z,40
2017-09-20T06:55:30.883Z,40
2017-09-20T06:56:42.082Z,40
2017-09-20T06:57:52.128Z,40
2017-09-20T06:59:01.825Z,40
2017-09-20T07:00:11.851Z,45
2017-09-20T07:01:22.178Z,50
2017-09-20T07:02:32.505Z,55
2017-09-20T07:03:42.845Z,60
2017-09-20T07:04:53.194Z,60
2017-09-20T07:06:03.225Z,60
2017-09-20T07:07:13.573Z,60
2017-09-20T07:08:23.914Z,60
2017-09-20T07:09:34.250Z,60
2017-09-20T07:10:44.296Z,60
2017-09-20T07:11:56.932Z,60
2017-09-20T07:13:08.835Z,60
2017-09-20T07:14:18.877Z,60
2017-09-20T07:15:29.212Z,60
2017-09-20T07:16:39.236Z,60
2017-09-20T07:17:49.601Z,60
2017-09-20T07:18:59.939Z,60
2017-09-20T07:20:10.280Z,55
2017-09-20T07:21:20.672Z,60
2017-09-20T07:22:31.020Z,60
2017-09-20T07:23:41.345Z,60
2017-09-20T07:24:51.704Z,55
2017-09-20T07:26:01.735Z,55
2017-09-20T07:27:12.067Z,60
2017-09-20T07:28:22.413Z,55
2017-09-20T07:29:32.746Z,50
2017-09-20T07:30:43.082Z,60
2017-09-20T07:31:53.413Z,65
2017-09-20T07:33:03.767Z,60
2017-09-20T07:34:14.099Z,55
2017-09-20T07:35:24.115Z,50
2017-09-20T07:36:34.460Z,50
2017-09-20T07:37:44.807Z,55
2017-09-20T07:38:55.150Z,65
2017-09-20T07:40:05.478Z,70
2017-09-20T07:41:15.813Z,65
2017-09-20T07:42:26.140Z,65
2017-09-20T07:43:36.481Z,65
2017-09-20T07:44:46.830Z,70
2017-09-20T07:45:57.172Z,80
2017-09-20T07:47:07.520Z,75
2017-09-20T07:48:17.851Z,70
2017-09-20T07:49:27.563Z,65
2017-09-20T07:50:37.591Z,65
2017-09-20T07:51:47.915Z,65
2017-09-20T07:52:57.946Z,65
2017-09-20T07:54:08.276Z,65
2017-09-20T07:55:18.620Z,70
2017-09-20T07:56:28.632Z,70
2017-09-20T07:57:38.957Z,75
2017-09-20T07:58:49.301Z,80
2017-09-20T07:59:59.650Z,80
2017-09-20T08:01:09.978Z,75
2017-09-20T08:02:19.994Z,65
2017-09-20T08:03:30.012Z,55
2017-09-20T08:04:40.344Z,60
2017-09-20T08:05:50.350Z,65
2017-09-20T08:07:00.352Z,65
2017-09-20T08:08:10.740Z,70
2017-09-20T08:09:21.077Z,70
2017-09-20T08:10:33.975Z,70
2017-09-20T08:11:44.298Z,70
2017-09-20T08:12:54.306Z,65
2017-09-20T08:14:04.378Z,70
2017-09-20T08:15:14.723Z,70
2017-09-20T08:16:25.046Z,75
2017-09-20T08:17:35.393Z,75
2017-09-20T08:18:45.741Z,75
2017-09-20T08:19:55.777Z,75
2017-09-20T08:21:05.785Z,75
2017-09-20T08:22:17.988Z,75
2017-09-20T08:23:28.328Z,80
2017-09-20T08:24:38.359Z,80
2017-09-20T08:25:48.690Z,80
2017-09-20T08:26:58.707Z,80
2017-09-20T08:28:11.993Z,75
2017-09-20T08:29:21.990Z,75
2017-09-20T08:30:32.341Z,75
2017-09-20T08:31:42.517Z,70
2017-09-20T08:32:52.878Z,70
2017-09-20T08:34:02.918Z,65
2017-09-20T08:35:13.268Z,65
2017-09-20T08:36:23.605Z,65
2017-09-20T08:37:33.948Z,70
2017-09-20T08:38:44.313Z,70
2017-09-20T08:39:54.035Z,75
2017-09-20T08:41:04.420Z,75
2017-09-20T08:42:16.833Z,70
2017-09-20T08:43:28.214Z,70
2017-09-20T08:44:38.742Z,70
2017-09-20T08:45:49.130Z,70
2017-09-20T08:46:59.484Z,70
2017-09-20T08:48:09.837Z,75
2017-09-20T08:49:20.264Z,75
2017-09-20T08:50:30.649Z,70
2017-09-20T08:51:41.018Z,75
2017-09-20T08:52:51.079Z,75
2017-09-20T08:54:03.909Z,65
2017-09-20T08:55:13.998Z,60
2017-09-20T08:56:24.383Z,60
2017-09-20T08:57:34.741Z,55
2017-09-20T08:58:44.783Z,55
2017-09-20T08:59:55.170Z,55
2017-09-20T09:01:05.517Z,60
2017-09-20T09:02:15.889Z,60
2017-09-20T09:03:25.928Z,60
2017-09-20T09:04:36.315Z,60
2017-09-20T09:05:46.747Z,60
2017-09-20T09:06:57.180Z,60
2017-09-20T09:08:07.553Z,65
2017-09-20T09:09:17.932Z,65
2017-09-20T09:10:28.236Z,65
2017-09-20T09:11:38.614Z,70
2017-09-20T09:12:48.983Z,65
2017-09-20T09:14:01.015Z,65
2017-09-20T09:15:10.738Z,65
2017-09-20T09:16:20.806Z,70
2017-09-20T09:17:31.176Z,70
2017-09-20T09:18:41.275Z,70
2017-09-20T09:19:51.659Z,75
2017-09-20T09:21:02.026Z,75
2017-09-20T09:22:12.386Z,80
2017-09-20T09:23:22.738Z,80
2017-09-20T09:24:36.213Z,80
2017-09-20T09:25:46.403Z,80
2017-09-20T09:26:56.785Z,85
2017-09-20T09:28:06.829Z,85
2017-09-20T09:29:17.168Z,80
2017-09-20T09:30:27.282Z,80
2017-09-20T09:31:37.645Z,80
2017-09-20T09:32:48.015Z,80
2017-09-20T09:33:58.395Z,80
2017-09-20T09:35:11.481Z,80
2017-09-20T09:36:24.010Z,80
2017-09-20T09:37:34.376Z,80
2017-09-20T09:38:44.415Z,80
2017-09-20T09:39:54.470Z,80
2017-09-20T09:41:04.838Z,80
2017-09-20T09:42:17.992Z,75
2017-09-20T09:43:28.361Z,75
2017-09-20T09:44:38.709Z,75
2017-09-20T09:45:49.965Z,70
2017-09-20T09:47:00.339Z,65
2017-09-20T09:48:10.372Z,65
2017-09-20T09:49:20.760Z,65
2017-09-20T09:50:31.108Z,70
2017-09-20T09:51:41.466Z,70
2017-09-20T09:52:52.635Z,70
2017-09-20T09:54:03.021Z,75
2017-09-20T09:55:13.401Z,80
2017-09-20T09:56:23.769Z,80
2017-09-20T09:57:34.144Z,80
2017-09-20T09:58:44.494Z,85
2017-09-20T09:59:54.467Z,95
2017-09-20T10:01:04.520Z,105
2017-09-20T10:02:15.637Z,110
2017-09-20T10:03:25.672Z,115
2017-09-20T10:04:36.041Z,125
2017-09-20T10:05:46.405Z,120
2017-09-20T10:06:56.440Z,130
2017-09-20T10:08:06.501Z,140
2017-09-20T10:09:16.857Z,145
2017-09-20T10:10:27.141Z,145
2017-09-20T10:11:37.204Z,145
2017-09-20T10:12:47.607Z,140
2017-09-20T10:14:00.501Z,135
2017-09-20T10:15:10.563Z,135
2017-09-20T10:16:20.945Z,145
2017-09-20T10:17:31.333Z,145
2017-09-20T10:18:41.764Z,135
2017-09-20T10:19:51.818Z,130
2017-09-20T10:21:02.297Z,130
2017-09-20T10:22:12.707Z,135
2017-09-20T10:23:23.111Z,145
2017-09-20T10:24:33.587Z,145
2017-09-20T10:25:44.122Z,150
2017-09-20T10:26:54.494Z,155
2017-09-20T10:28:04.861Z,160
2017-09-20T10:29:15.247Z,175
2017-09-20T10:30:25.025Z,185
2017-09-20T10:31:35.642Z,200
2017-09-20T10:32:45.704Z,205
2017-09-20T10:33:56.079Z,205
2017-09-20T10:35:06.452Z,210
2017-09-20T10:36:16.872Z,200
2017-09-20T10:37:27.261Z,210
2017-09-20T10:38:37.611Z,215
2017-09-20T10:39:47.992Z,215
2017-09-20T10:40:58.461Z,215
2017-09-20T10:42:08.888Z,215
2017-09-20T10:43:19.256Z,210
2017-09-20T10:44:29.316Z,200
2017-09-20T10:45:39.698Z,180
2017-09-20T10:46:50.080Z,170
2017-09-20T10:48:00.505Z,155
2017-09-20T10:49:11.006Z,150
2017-09-20T10:50:21.037Z,135
2017-09-20T10:51:31.386Z,130
2017-09-20T10:52:41.749Z,125
2017-09-20T10:53:51.474Z,120
2017-09-20T10:55:01.826Z,110
2017-09-20T10:56:12.202Z,110
2017-09-20T10:57:22.567Z,110
2017-09-20T10:58:32.933Z,105
2017-09-20T10:59:45.485Z,100
2017-09-20T11:00:55.545Z,100
2017-09-20T11:02:05.615Z,100
2017-09-20T11:03:18.955Z,100
2017-09-20T11:04:29.346Z,100
2017-09-20T11:05:39.785Z,100
2017-09-20T11:06:49.827Z,100
2017-09-20T11:08:00.190Z,95
2017-09-20T11:09:10.559Z,100
2017-09-20T11:10:20.919Z,100
2017-09-20T11:11:32.361Z,110
2017-09-20T11:12:42.717Z,105
2017-09-20T11:13:53.112Z,110
2017-09-20T11:15:03.488Z,110
2017-09-20T11:16:13.546Z,105
2017-09-20T11:17:23.959Z,105
2017-09-20T11:18:34.345Z,105
2017-09-20T11:19:44.401Z,100
2017-09-20T11:20:54.114Z,90
2017-09-20T11:22:04.537Z,90
2017-09-20T11:23:21.510Z,90
2017-09-20T11:24:31.621Z,90
2017-09-20T11:25:41.983Z,100
2017-09-20T11:26:52.347Z,110
2017-09-20T11:28:02.702Z,120
2017-09-20T11:29:13.061Z,120
2017-09-20T11:30:23.446Z,120
2017-09-20T11:31:33.814Z,120
2017-09-20T11:32:44.197Z,125
2017-09-20T11:33:54.242Z,130
2017-09-20T11:35:04.319Z,135
2017-09-20T11:36:14.680Z,135
2017-09-20T11:37:27.443Z,135
2017-09-20T11:38:37.501Z,135
2017-09-20T11:39:47.877Z,135
2017-09-20T11:40:58.315Z,130
2017-09-20T11:42:08.674Z,125
2017-09-20T11:43:18.738Z,135
2017-09-20T11:44:29.110Z,140
2017-09-20T11:45:39.184Z,145
2017-09-20T11:46:48.966Z,150
2017-09-20T11:47:59.335Z,150
2017-09-20T11:49:09.718Z,155
2017-09-20T11:50:19.773Z,150
2017-09-20T11:51:30.122Z,150
2017-09-20T11:52:40.510Z,155
2017-09-20T11:53:50.581Z,155
2017-09-20T11:55:00.945Z,150
2017-09-20T11:56:11.004Z,150
2017-09-20T11:57:21.088Z,150
2017-09-20T11:58:31.471Z,150
2017-09-20T11:59:41.514Z,150
2017-09-20T12:00:52.810Z,145
2017-09-20T12:02:02.862Z,145
2017-09-20T12:03:12.885Z,145
2017-09-20T12:04:23.296Z,135
2017-09-20T12:05:33.658Z,130
2017-09-20T12:06:44.011Z,125
2017-09-20T12:07:54.391Z,120
2017-09-20T12:09:06.239Z,115
2017-09-20T12:10:16.284Z,115
2017-09-20T12:11:26.320Z,115
2017-09-20T12:12:36.357Z,115
2017-09-20T12:13:46.707Z,115
2017-09-20T12:14:57.092Z,115
2017-09-20T12:16:07.509Z,115
2017-09-20T12:17:17.835Z,115
2017-09-20T12:18:28.186Z,115
2017-09-20T12:19:38.532Z,115
2017-09-20T12:20:48.888Z,120
2017-09-20T12:21:59.262Z,120
2017-09-20T12:23:12.214Z,125
2017-09-20T12:24:22.257Z,125
2017-09-20T12:25:34.522Z,125
2017-09-20T12:26:44.924Z,120
2017-09-20T12:27:55.280Z,115
2017-09-20T12:29:05.656Z,110
2017-09-20T12:30:16.015Z,110
2017-09-20T12:31:26.048Z,105
2017-09-20T12:32:36.464Z,95
2017-09-20T12:33:46.857Z,95
2017-09-20T12:34:57.217Z,90
2017-09-20T12:36:07.262Z,85
2017-09-20T12:37:17.603Z,80
2017-09-20T12:38:28.006Z,80
2017-09-20T12:39:38.048Z,80
2017-09-20T12:40:48.401Z,80
2017-09-20T12:41:58.752Z,80
2017-09-20T12:43:09.089Z,80
2017-09-20T12:44:19.477Z,80
2017-09-20T12:45:29.886Z,80
2017-09-20T12:46:40.259Z,80
2017-09-20T12:47:50.618Z,80
2017-09-20T12:49:00.975Z,80
2017-09-20T12:50:12.608Z,80
2017-09-20T12:51:22.978Z,80
2017-09-20T12:52:33.338Z,80
2017-09-20T12:53:43.692Z,90
2017-09-20T12:54:54.021Z,90
2017-09-20T12:56:04.415Z,95
2017-09-20T12:57:14.450Z,95
2017-09-20T12:58:24.473Z,95
2017-09-20T12:59:34.492Z,95
2017-09-20T13:00:44.560Z,90
2017-09-20T13:01:54.915Z,90
2017-09-20T13:03:05.258Z,90
2017-09-20T13:04:15.302Z,85
2017-09-20T13:05:25.347Z,85
2017-09-20T13:06:35.400Z,80
2017-09-20T13:07:45.508Z,80
2017-09-20T13:08:55.860Z,75
2017-09-20T13:10:06.219Z,80
2017-09-20T13:11:16.263Z,75
2017-09-20T13:12:26.628Z,75
2017-09-20T13:13:37.030Z,75
2017-09-20T13:14:47.083Z,75
2017-09-20T13:15:57.421Z,70
2017-09-20T13:17:07.451Z,70
2017-09-20T13:18:17.831Z,65
2017-09-20T13:19:28.235Z,65
2017-09-20T13:20:38.619Z,60
2017-09-20T13:21:49.005Z,60
2017-09-20T13:22:59.071Z,55
2017-09-20T13:24:09.455Z,55
2017-09-20T13:25:19.811Z,50
2017-09-20T13:26:29.845Z,50
2017-09-20T13:27:40.205Z,50
2017-09-20T13:28:50.553Z,45
2017-09-20T13:30:00.920Z,45
2017-09-20T13:31:11.326Z,45
2017-09-20T13:32:21.685Z,45
2017-09-20T13:33:31.725Z,45
2017-09-20T13:34:42.060Z,45
2017-09-20T13:35:52.428Z,45
2017-09-20T13:37:02.827Z,45
2017-09-20T13:38:12.876Z,45
2017-09-20T13:39:25.603Z,45
2017-09-20T13:40:35.965Z,45
2017-09-20T13:41:46.349Z,45
2017-09-20T13:42:56.448Z,45
2017-09-20T13:44:06.172Z,45
2017-09-20T13:45:16.187Z,45
2017-09-20T13:46:26.228Z,45
2017-09-20T13:47:36.603Z,40
2017-09-20T13:48:46.958Z,40
2017-09-20T13:49:56.698Z,40
2017-09-20T13:51:06.736Z,40
2017-09-20T13:52:16.459Z,40
2017-09-20T13:53:26.516Z,40
2017-09-20T13:54:36.865Z,40
2017-09-20T13:55:47.230Z,35
2017-09-20T13:56:57.619Z,35
2017-09-20T13:58:07.626Z,35
2017-09-20T13:59:18.039Z,35
2017-09-20T14:00:28.379Z,35
2017-09-20T14:01:38.410Z,35
2017-09-20T14:02:48.764Z,35
2017-09-20T14:03:59.123Z,35
2017-09-20T14:05:09.529Z,35
2017-09-20T14:06:19.897Z,35
2017-09-20T14:07:30.257Z,35
2017-09-20T14:08:39.978Z,35
2017-09-20T14:09:50.044Z,35
2017-09-20T14:11:00.388Z,35
2017-09-20T14:12:10.448Z,35
2017-09-20T14:13:20.828Z,40
2017-09-20T14:14:31.171Z,40
2017-09-20T14:15:44.785Z,40
2017-09-20T14:16:54.544Z,40
2017-09-20T14:18:04.899Z,40
2017-09-20T14:19:15.258Z,40
2017-09-20T14:20:25.610Z,40
2017-09-20T14:21:35.651Z,40
2017-09-20T14:22:46.017Z,35
2017-09-20T14:23:56.374Z,35
2017-09-20T14:25:06.417Z,35
2017-09-20T14:26:16.778Z,35
2017-09-20T14:27:27.146Z,30
2017-09-20T14:28:36.879Z,30
2017-09-20T14:29:47.245Z,30
2017-09-20T14:30:57.602Z,30
2017-09-20T14:32:07.954Z,30
2017-09-20T14:33:18.322Z,30
2017-09-20T14:34:28.725Z,30
2017-09-20T14:35:39.076Z,30
2017-09-20T14:36:49.432Z,30
2017-09-20T14:37:59.465Z,30
2017-09-20T14:39:09.817Z,30
2017-09-20T14:40:20.198Z,30
2017-09-20T14:41:30.543Z,30
2017-09-20T14:42:40.912Z,30
2017-09-20T14:43:51.256Z,30
2017-09-20T14:45:01.603Z,25
2017-09-20T14:46:11.954Z,25
2017-09-20T14:47:22.323Z,30
2017-09-20T14:48:32.356Z,30
2017-09-20T14:49:42.691Z,30
2017-09-20T14:50:52.431Z,30
2017-09-20T14:52:03.066Z,35
2017-09-20T14:53:13.418Z,35
2017-09-20T14:54:23.787Z,35
2017-09-20T14:55:34.130Z,35
2017-09-20T14:56:44.477Z,35
2017-09-20T14:57:54.877Z,35
2017-09-20T14:59:04.912Z,35
2017-09-20T15:00:15.268Z,35
2017-09-20T15:01:25.349Z,35
2017-09-20T15:02:35.382Z,35
2017-09-20T15:03:45.730Z,35
2017-09-20T15:04:56.151Z,35
2017-09-20T15:06:06.520Z,40
2017-09-20T15:07:16.894Z,40
2017-09-20T15:08:27.269Z,40
2017-09-20T15:09:37.611Z,35
2017-09-20T15:10:48.030Z,35
2017-09-20T15:11:58.419Z,35
2017-09-20T15:13:08.474Z,35
2017-09-20T15:14:18.826Z,35
2017-09-20T15:15:29.188Z,35
2017-09-20T15:16:39.540Z,35
2017-09-20T15:17:49.930Z,35
2017-09-20T15:19:00.305Z,35
2017-09-20T15:20:10.665Z,35
2017-09-20T15:21:21.023Z,35
2017-09-20T15:22:31.390Z,30
2017-09-20T15:23:41.435Z,30
2017-09-20T15:24:51.487Z,30
2017-09-20T15:26:01.869Z,30
2017-09-20T15:27:12.291Z,30
2017-09-20T15:28:22.027Z,30
2017-09-20T15:29:32.061Z,25
2017-09-20T15:30:42.446Z,25
2017-09-20T15:31:52.479Z,25
2017-09-20T15:33:02.855Z,25
2017-09-20T15:34:13.214Z,25
2017-09-20T15:35:23.253Z,25
2017-09-20T15:36:33.346Z,25
2017-09-20T15:37:43.398Z,25
2017-09-20T15:38:53.813Z,25
2017-09-20T15:40:04.172Z,25
2017-09-20T15:41:14.554Z,25
2017-09-20T15:42:26.807Z,25
2017-09-20T15:43:37.152Z,25
2017-09-20T15:44:47.563Z,25
2017-09-20T15:45:57.919Z,25
2017-09-20T15:47:08.288Z,25
2017-09-20T15:48:18.334Z,20
2017-09-20T15:49:28.369Z,20
2017-09-20T15:50:38.409Z,20
2017-09-20T15:51:48.445Z,20
2017-09-20T15:52:58.491Z,20
2017-09-20T15:54:08.531Z,20
2017-09-20T15:55:18.235Z,15
2017-09-20T15:56:28.294Z,15
2017-09-20T15:57:40.553Z,15
2017-09-20T15:58:50.593Z,15
2017-09-20T16:00:00.944Z,15
2017-09-20T16:01:11.303Z,10
2017-09-20T16:02:21.661Z,10
2017-09-20T16:03:31.708Z,10
2017-09-20T16:04:41.736Z,10
2017-09-20T16:05:52.104Z,10
2017-09-20T16:07:03.270Z,10
2017-09-20T16:08:14.189Z,5
2017-09-20T16:09:24.551Z,5
2017-09-20T16:10:34.910Z,5
2017-09-20T16:11:45.274Z,5
2017-09-20T16:12:55.647Z,5
2017-09-20T16:14:05.742Z,5
2017-09-20T16:15:16.251Z,5
2017-09-20T16:16:26.698Z,5
2017-09-20T16:17:37.040Z,5
2017-09-20T16:18:46.766Z,5
2017-09-20T16:19:57.156Z,5
2017-09-20T16:21:07.524Z,5
2017-09-20T16:22:17.882Z,5
2017-09-20T16:23:28.268Z,5
2017-09-20T16:24:38.314Z,5
2017-09-20T16:25:48.738Z,5
2017-09-20T16:26:59.199Z,5
2017-09-20T16:28:09.750Z,5
2017-09-20T16:29:20.104Z,0
2017-09-20T16:30:30.486Z,0
2017-09-20T16:31:40.847Z,0
2017-09-20T16:32:51.234Z,0
2017-09-20T16:34:01.289Z,0
2017-09-20T16:35:11.671Z,0
2017-09-20T16:36:21.717Z,0
2017-09-20T16:37:32.097Z,0
2017-09-20T16:38:42.492Z,0
2017-09-20T16:39:52.891Z,0
2017-09-20T16:41:03.248Z,0
2017-09-20T16:42:13.618Z,0
2017-09-20T16:43:23.675Z,0
2017-09-20T16:44:33.732Z,0
2017-09-20T16:45:43.755Z,0
2017-09-20T16:46:54.133Z,0
2017-09-20T16:48:04.494Z,0
2017-09-20T16:49:14.900Z,0
2017-09-20T16:50:51.028Z,0
2017-09-20T16:52:01.389Z,0
2017-09-20T16:53:11.415Z,0
2017-09-20T16:54:21.799Z,0
2017-09-20T16:55:32.175Z,0
2017-09-20T16:56:42.582Z,0
2017-09-20T16:57:52.652Z,0
2017-09-20T16:59:02.706Z,0
2017-09-20T17:00:13.063Z,0
2017-09-20T17:01:23.431Z,0
2017-09-20T17:02:35.739Z,0
2017-09-20T17:03:45.796Z,0
2017-09-20T17:04:55.840Z,0
2017-09-20T17:06:06.193Z,0
2017-09-20T17:07:16.568Z,0
2017-09-20T17:08:26.974Z,0
2017-09-20T17:09:37.023Z,0
2017-09-20T17:10:47.057Z,0
2017-09-20T17:11:57.425Z,0
2017-09-20T17:13:07.830Z,0
2017-09-20T17:14:19.026Z,0
2017-09-20T17:15:29.069Z,0
2017-09-20T17:16:39.151Z,0
2017-09-20T17:17:49.550Z,0
2017-09-20T17:18:59.933Z,0
2017-09-20T17:20:10.302Z,0
2017-09-20T17:21:20.670Z,0
2017-09-20T17:22:30.711Z,0